createdAt,value
2019-05-05T00:00:57.987Z,4.93
2019-05-05T00:03:36.038Z,4.67
2019-05-05T00:06:07.352Z,4.40
2019-05-05T00:08:37.086Z,5.07
2019-05-05T00:11:26.573Z,4.00
2019-05-05T00:13:57.780Z,4.90
2019-05-05T00:16:35.147Z,5.00
2019-05-05T00:19:04.917Z,5.10
2019-05-05T00:21:34.484Z,4.73
2019-05-05T00:24:04.626Z,5.60
2019-05-05T00:26:34.960Z,4.60
2019-05-05T00:29:05.704Z,5.53
2019-05-05T00:31:36.432Z,4.20
2019-05-05T00:34:06.032Z,4.10
2019-05-05T00:36:35.822Z,4.47
2019-05-05T00:39:08.385Z,4.80
2019-05-05T00:41:37.941Z,4.80
2019-05-05T00:44:07.500Z,4.30
2019-05-05T00:46:38.604Z,4.90
2019-05-05T00:49:08.161Z,4.53
2019-05-05T00:51:37.733Z,4.47
2019-05-05T00:54:07.268Z,4.57
2019-05-05T00:56:36.953Z,4.63
2019-05-05T00:59:08.187Z,5.43
2019-05-05T01:01:55.287Z,5.07
2019-05-05T01:04:26.595Z,4.70
2019-05-05T01:06:56.286Z,4.50
2019-05-05T01:09:27.758Z,4.50
2019-05-05T01:11:57.643Z,4.67
2019-05-05T01:14:27.198Z,4.27
2019-05-05T01:16:56.829Z,5.00
2019-05-05T01:19:26.317Z,5.50
2019-05-05T01:21:56.034Z,5.47
2019-05-05T01:24:25.911Z,5.30
2019-05-05T01:26:55.566Z,5.93
2019-05-05T01:29:25.386Z,6.40
2019-05-05T01:31:58.139Z,6.00
2019-05-05T01:34:30.463Z,5.87
2019-05-05T01:37:01.677Z,6.17
2019-05-05T01:39:34.546Z,6.27
2019-05-05T01:42:06.081Z,5.77
2019-05-05T01:44:35.752Z,6.67
2019-05-05T01:47:05.467Z,6.37
2019-05-05T01:49:35.050Z,6.63
2019-05-05T01:52:04.657Z,6.90
2019-05-05T01:54:35.313Z,7.50
2019-05-05T01:57:05.956Z,6.57
2019-05-05T01:59:36.122Z,6.90
2019-05-05T02:02:06.600Z,7.30
2019-05-05T02:04:37.545Z,7.67
2019-05-05T02:07:07.412Z,6.80
2019-05-05T02:09:37.053Z,8.10
2019-05-05T02:12:06.745Z,6.93
2019-05-05T02:14:36.448Z,7.50
2019-05-05T02:17:06.014Z,7.70
2019-05-05T02:19:35.584Z,7.70
2019-05-05T02:22:05.509Z,7.83
2019-05-05T02:24:35.482Z,6.70
2019-05-05T02:27:05.404Z,7.97
2019-05-05T02:29:36.677Z,7.53
2019-05-05T02:32:25.753Z,8.13
2019-05-05T02:35:00.324Z,7.57
2019-05-05T02:37:29.890Z,7.37
2019-05-05T02:40:06.345Z,7.50
2019-05-05T02:42:31.887Z,7.53
2019-05-05T02:45:05.704Z,8.47
2019-05-05T02:47:56.584Z,8.20
2019-05-05T02:50:46.712Z,8.10
2019-05-05T02:53:04.054Z,7.80
2019-05-05T02:55:34.990Z,7.60
2019-05-05T02:58:04.680Z,9.37
2019-05-05T03:00:36.005Z,8.40
2019-05-05T03:03:07.272Z,9.13
2019-05-05T03:05:36.941Z,8.53
2019-05-05T03:08:08.268Z,7.70
2019-05-05T03:10:39.034Z,9.00
2019-05-05T03:13:08.793Z,8.60
2019-05-05T03:15:47.083Z,8.30
2019-05-05T03:18:16.672Z,8.57
2019-05-05T03:20:46.288Z,8.87
2019-05-05T03:23:15.897Z,9.47
2019-05-05T03:25:46.161Z,8.50
2019-05-05T03:28:15.714Z,8.33
2019-05-05T03:30:45.793Z,8.37
2019-05-05T03:33:16.446Z,8.63
2019-05-05T03:35:46.330Z,9.23
2019-05-05T03:38:16.895Z,9.50
2019-05-05T03:40:48.127Z,9.57
2019-05-05T03:43:31.503Z,8.87
2019-05-05T03:46:04.409Z,8.20
2019-05-05T03:48:34.704Z,8.33
2019-05-05T03:51:16.047Z,9.47
2019-05-05T03:53:36.345Z,8.63
2019-05-05T03:56:06.040Z,8.23
2019-05-05T03:58:35.598Z,8.90
2019-05-05T04:01:27.878Z,8.20
2019-05-05T04:04:16.464Z,8.23
2019-05-05T04:06:47.101Z,8.27
2019-05-05T04:09:16.663Z,7.60
2019-05-05T04:11:46.423Z,7.47
2019-05-05T04:14:18.390Z,7.47
2019-05-05T04:17:01.134Z,8.40
2019-05-05T04:19:37.946Z,8.17
2019-05-05T04:22:07.510Z,8.17
2019-05-05T04:24:37.079Z,7.80
2019-05-05T04:27:06.672Z,8.40
2019-05-05T04:29:36.287Z,8.10
2019-05-05T04:32:05.775Z,8.27
2019-05-05T04:34:35.228Z,8.40
2019-05-05T04:37:04.840Z,7.70
2019-05-05T04:39:36.284Z,7.47
2019-05-05T04:42:05.840Z,6.97
2019-05-05T04:44:35.501Z,7.17
2019-05-05T04:47:15.752Z,7.27
2019-05-05T04:49:47.428Z,9.17
2019-05-05T04:52:24.626Z,10.23
2019-05-05T04:54:55.796Z,9.17
2019-05-05T04:57:25.764Z,7.93
2019-05-05T04:59:55.294Z,8.70
2019-05-05T05:02:38.363Z,9.47
2019-05-05T05:05:25.009Z,9.80
2019-05-05T05:07:57.694Z,8.03
2019-05-05T05:10:25.921Z,9.13
2019-05-05T05:12:55.412Z,9.43
2019-05-05T05:15:36.632Z,9.10
2019-05-05T05:18:17.611Z,8.60
2019-05-05T05:20:55.224Z,7.90
2019-05-05T05:23:36.443Z,7.33
2019-05-05T05:26:06.092Z,10.63
2019-05-05T05:28:38.531Z,7.50
2019-05-05T05:31:24.343Z,6.10
2019-05-05T05:33:52.114Z,6.33
2019-05-05T05:36:24.764Z,7.40
2019-05-05T05:38:56.160Z,7.00
2019-05-05T05:41:45.173Z,7.50
2019-05-05T05:44:28.088Z,7.57
2019-05-05T05:47:14.112Z,8.13
2019-05-05T05:49:48.424Z,8.23
2019-05-05T05:52:19.275Z,7.47
2019-05-05T05:54:49.105Z,7.50
2019-05-05T05:57:18.662Z,7.70
2019-05-05T05:59:48.334Z,7.60
2019-05-05T06:02:18.004Z,7.43
2019-05-05T06:04:47.574Z,9.83
2019-05-05T06:07:17.134Z,9.63
2019-05-05T06:09:48.257Z,8.80
2019-05-05T06:12:17.769Z,8.53
2019-05-05T06:14:54.413Z,7.67
2019-05-05T06:17:23.981Z,7.70
2019-05-05T06:20:21.463Z,10.77
2019-05-05T06:22:32.217Z,8.07
2019-05-05T06:25:06.157Z,5.00
2019-05-05T06:27:34.446Z,5.00
2019-05-05T06:30:05.278Z,4.77
2019-05-05T06:32:34.771Z,4.50
2019-05-05T06:35:05.061Z,3.80
2019-05-05T06:37:34.819Z,4.03
2019-05-05T06:40:08.051Z,4.50
2019-05-05T06:42:39.180Z,4.80
2019-05-05T06:45:10.502Z,5.27
2019-05-05T06:47:41.563Z,5.80
2019-05-05T06:50:11.476Z,5.93
2019-05-05T06:52:44.465Z,5.97
2019-05-05T06:55:14.091Z,6.30
2019-05-05T06:57:44.415Z,6.13
2019-05-05T07:00:14.532Z,5.87
2019-05-05T07:02:44.531Z,5.77
2019-05-05T07:05:14.414Z,5.10
2019-05-05T07:07:43.984Z,5.20
2019-05-05T07:10:16.684Z,5.30
2019-05-05T07:12:46.337Z,4.83
2019-05-05T07:15:15.995Z,5.20
2019-05-05T07:17:45.605Z,4.90
2019-05-05T07:20:15.368Z,5.67
2019-05-05T07:22:58.372Z,5.33
2019-05-05T07:25:16.220Z,4.83
2019-05-05T07:27:46.068Z,4.70
2019-05-05T07:30:15.673Z,5.67
2019-05-05T07:32:45.279Z,4.60
2019-05-05T07:35:24.600Z,4.60
2019-05-05T07:37:54.332Z,5.00
2019-05-05T07:40:24.173Z,5.07
2019-05-05T07:42:54.078Z,4.53
2019-05-05T07:45:25.886Z,5.27
2019-05-05T07:47:55.055Z,5.17
2019-05-05T07:50:29.555Z,5.37
2019-05-05T07:52:55.844Z,5.03
2019-05-05T07:55:25.338Z,4.83
2019-05-05T07:57:54.819Z,4.83
2019-05-05T08:00:24.454Z,5.27
2019-05-05T08:02:54.501Z,5.57
2019-05-05T08:05:24.683Z,5.80
2019-05-05T08:07:54.354Z,5.70
2019-05-05T08:10:24.227Z,5.90
2019-05-05T08:12:54.318Z,6.20
2019-05-05T08:15:25.559Z,5.87
2019-05-05T08:17:56.762Z,5.63
2019-05-05T08:20:34.048Z,5.80
2019-05-05T08:23:04.615Z,5.90
2019-05-05T08:25:40.379Z,6.30
2019-05-05T08:28:27.701Z,6.10
2019-05-05T08:30:58.932Z,6.17
2019-05-05T08:33:28.411Z,6.10
2019-05-05T08:35:57.903Z,5.87
2019-05-05T08:38:27.620Z,5.70
2019-05-05T08:40:57.113Z,7.77
2019-05-05T08:43:26.834Z,5.40
2019-05-05T08:45:56.567Z,5.20
2019-05-05T08:48:26.120Z,4.90
2019-05-05T08:50:55.678Z,4.83
2019-05-05T08:53:25.180Z,5.43
2019-05-05T08:55:54.759Z,6.10
2019-05-05T08:58:24.349Z,5.80
2019-05-05T09:00:54.061Z,4.40
2019-05-05T09:03:24.297Z,5.17
2019-05-05T09:05:54.298Z,5.07
2019-05-05T09:08:24.267Z,5.37
2019-05-05T09:10:55.210Z,5.20
2019-05-05T09:13:25.007Z,4.70
2019-05-05T09:15:54.578Z,4.87
2019-05-05T09:18:24.682Z,5.70
2019-05-05T09:20:54.458Z,5.73
2019-05-05T09:23:24.181Z,4.80
2019-05-05T09:25:55.316Z,5.87
2019-05-05T09:28:34.145Z,4.57
2019-05-05T09:31:04.261Z,5.00
2019-05-05T09:33:33.997Z,5.37
2019-05-05T09:36:04.672Z,5.23
2019-05-05T09:38:36.000Z,5.37
2019-05-05T09:41:05.557Z,5.33
2019-05-05T09:43:35.219Z,5.10
2019-05-05T09:46:04.854Z,5.20
2019-05-05T09:48:34.417Z,5.83
2019-05-05T09:51:04.461Z,4.83
2019-05-05T09:53:34.636Z,4.70
2019-05-05T09:56:04.284Z,4.07
2019-05-05T09:58:34.783Z,4.20
2019-05-05T10:01:06.522Z,4.07
2019-05-05T10:03:36.260Z,3.37
2019-05-05T10:06:05.861Z,3.67
2019-05-05T10:08:35.736Z,3.57
2019-05-05T10:11:05.309Z,4.27
2019-05-05T10:13:34.780Z,3.80
2019-05-05T10:16:05.773Z,3.63
2019-05-05T10:18:35.988Z,3.90
2019-05-05T10:21:05.944Z,4.27
2019-05-05T10:23:37.025Z,4.50
2019-05-05T10:26:11.182Z,3.80
2019-05-05T10:28:40.882Z,4.73
2019-05-05T10:31:10.478Z,4.57
2019-05-05T10:33:41.750Z,4.17
2019-05-05T10:36:11.464Z,4.60
2019-05-05T10:38:44.469Z,4.47
2019-05-05T10:41:14.344Z,4.57
2019-05-05T10:43:43.989Z,3.70
2019-05-05T10:46:14.348Z,3.70
2019-05-05T10:48:44.603Z,4.10
2019-05-05T10:51:14.154Z,4.60
2019-05-05T10:53:43.996Z,4.03
2019-05-05T10:56:15.125Z,4.80
2019-05-05T10:58:46.353Z,4.30
2019-05-05T11:01:27.999Z,3.73
2019-05-05T11:03:59.948Z,4.20
2019-05-05T11:06:31.000Z,5.10
2019-05-05T11:09:01.415Z,4.57
2019-05-05T11:11:34.393Z,3.93
2019-05-05T11:14:04.614Z,4.33
2019-05-05T11:16:35.085Z,3.97
2019-05-05T11:19:07.879Z,4.93
2019-05-05T11:21:37.521Z,4.67
2019-05-05T11:24:08.721Z,6.67
2019-05-05T11:26:38.338Z,6.30
2019-05-05T11:29:07.895Z,5.53
2019-05-05T11:31:37.401Z,6.23
2019-05-05T11:34:09.039Z,4.97
2019-05-05T11:36:54.270Z,4.33
2019-05-05T11:39:23.610Z,4.20
2019-05-05T11:41:54.800Z,4.67
2019-05-05T11:44:24.525Z,4.40
2019-05-05T11:46:55.164Z,5.07
2019-05-05T11:49:24.720Z,5.80
2019-05-05T11:51:54.421Z,4.43
2019-05-05T11:54:24.690Z,5.23
2019-05-05T11:56:55.431Z,4.57
2019-05-05T11:59:25.433Z,4.90
2019-05-05T12:01:55.287Z,4.93
2019-05-05T12:04:25.775Z,5.10
2019-05-05T12:06:56.136Z,6.40
2019-05-05T12:09:27.482Z,4.33
2019-05-05T12:11:57.167Z,4.10
2019-05-05T12:14:28.390Z,4.07
2019-05-05T12:16:58.951Z,4.67
2019-05-05T12:19:28.520Z,4.20
2019-05-05T12:21:58.964Z,4.13
2019-05-05T12:24:30.089Z,4.60
2019-05-05T12:27:16.542Z,3.97
2019-05-05T12:29:47.305Z,4.50
2019-05-05T12:32:16.842Z,4.13
2019-05-05T12:34:46.546Z,4.53
2019-05-05T12:37:16.254Z,3.73
2019-05-05T12:39:46.084Z,3.67
2019-05-05T12:42:15.708Z,4.10
2019-05-05T12:44:47.027Z,3.30
2019-05-05T12:47:18.391Z,4.10
2019-05-05T12:49:47.995Z,4.20
2019-05-05T12:52:17.521Z,3.97
2019-05-05T12:54:46.953Z,3.67
2019-05-05T12:57:16.734Z,4.37
2019-05-05T12:59:46.177Z,3.83
2019-05-05T13:02:15.962Z,3.33
2019-05-05T13:04:45.621Z,4.27
2019-05-05T13:07:15.140Z,5.47
2019-05-05T13:09:44.709Z,4.63
2019-05-05T13:12:14.999Z,4.60
2019-05-05T13:14:44.867Z,4.37
2019-05-05T13:17:14.730Z,4.20
2019-05-05T13:19:45.870Z,3.57
2019-05-05T13:22:26.475Z,3.93
2019-05-05T13:24:57.609Z,4.20
2019-05-05T13:27:34.092Z,4.33
2019-05-05T13:30:04.393Z,3.97
2019-05-05T13:32:34.070Z,4.03
2019-05-05T13:35:04.615Z,4.17
2019-05-05T13:37:34.178Z,4.20
2019-05-05T13:40:05.019Z,4.30
2019-05-05T13:42:34.645Z,4.57
2019-05-05T13:45:27.238Z,4.80
2019-05-05T13:47:56.787Z,5.30
2019-05-05T13:50:28.019Z,3.73
2019-05-05T13:52:57.576Z,7.47
2019-05-05T13:55:27.142Z,5.03
2019-05-05T13:57:56.817Z,5.23
2019-05-05T14:00:26.855Z,4.10
2019-05-05T14:02:56.617Z,4.73
2019-05-05T14:05:26.249Z,4.63
2019-05-05T14:07:56.081Z,4.47
2019-05-05T14:10:25.717Z,4.30
2019-05-05T14:12:55.681Z,4.97
2019-05-05T14:15:25.556Z,3.63
2019-05-05T14:17:55.276Z,4.37
2019-05-05T14:20:24.880Z,5.13
2019-05-05T14:22:54.972Z,4.93
2019-05-05T14:25:26.379Z,4.57
2019-05-05T14:27:56.042Z,4.53
2019-05-05T14:30:30.727Z,4.40
2019-05-05T14:33:00.855Z,4.57
2019-05-05T14:35:34.105Z,3.70
2019-05-05T14:38:14.581Z,4.57
2019-05-05T14:40:44.597Z,4.50
2019-05-05T14:43:16.768Z,4.93
2019-05-05T14:45:45.673Z,4.87
2019-05-05T14:48:15.303Z,4.47
2019-05-05T14:50:45.255Z,4.90
2019-05-05T14:53:14.825Z,4.00
2019-05-05T14:55:45.534Z,3.97
2019-05-05T14:58:15.041Z,4.90
2019-05-05T15:00:44.675Z,3.83
2019-05-05T15:03:14.233Z,4.77
2019-05-05T15:05:51.223Z,3.77
2019-05-05T15:08:25.152Z,4.37
2019-05-05T15:11:03.657Z,3.90
2019-05-05T15:13:33.706Z,3.90
2019-05-05T15:16:04.137Z,6.70
2019-05-05T15:18:34.592Z,4.87
2019-05-05T15:21:04.278Z,4.10
2019-05-05T15:23:34.477Z,5.83
2019-05-05T15:26:04.647Z,4.70
2019-05-05T15:28:34.244Z,6.47
2019-05-05T15:31:04.210Z,5.60
2019-05-05T15:33:34.111Z,6.00
2019-05-05T15:36:04.434Z,5.90
2019-05-05T15:38:34.819Z,4.57
2019-05-05T15:41:04.806Z,5.00
2019-05-05T15:43:34.509Z,5.87
2019-05-05T15:46:04.584Z,6.23
2019-05-05T15:48:34.648Z,6.17
2019-05-05T15:51:04.407Z,5.83
2019-05-05T15:53:35.066Z,5.80
2019-05-05T15:56:04.805Z,6.07
2019-05-05T15:58:34.467Z,5.53
2019-05-05T16:01:04.037Z,6.87
2019-05-05T16:03:33.551Z,7.93
2019-05-05T16:06:03.830Z,6.40
2019-05-05T16:08:33.970Z,4.00
2019-05-05T16:11:04.082Z,3.80
2019-05-05T16:13:35.351Z,3.83
2019-05-05T16:16:15.340Z,3.50
2019-05-05T16:19:06.313Z,4.50
2019-05-05T16:21:37.470Z,3.97
2019-05-05T16:24:17.691Z,4.00
2019-05-05T16:26:47.260Z,3.67
2019-05-05T16:29:16.829Z,4.90
2019-05-05T16:31:46.454Z,4.53
2019-05-05T16:34:15.950Z,3.87
2019-05-05T16:36:45.513Z,3.77
2019-05-05T16:39:16.421Z,3.73
2019-05-05T16:41:46.159Z,3.73
2019-05-05T16:44:15.894Z,4.27
2019-05-05T16:46:45.635Z,4.13
2019-05-05T16:49:15.207Z,4.20
2019-05-05T16:51:49.357Z,3.97
2019-05-05T16:54:24.230Z,5.10
2019-05-05T16:56:54.901Z,4.20
2019-05-05T16:59:24.407Z,3.77
2019-05-05T17:01:54.208Z,4.80
2019-05-05T17:04:24.386Z,5.20
2019-05-05T17:06:59.237Z,4.63
2019-05-05T17:09:29.249Z,5.57
2019-05-05T17:12:10.732Z,6.10
2019-05-05T17:14:54.638Z,5.47
2019-05-05T17:17:28.614Z,5.87
2019-05-05T17:19:59.860Z,5.70
2019-05-05T17:22:30.991Z,6.80
2019-05-05T17:25:01.537Z,7.30
2019-05-05T17:27:31.298Z,7.63
2019-05-05T17:30:00.832Z,6.60
2019-05-05T17:32:30.529Z,6.30
2019-05-05T17:35:00.092Z,6.63
2019-05-05T17:37:29.960Z,6.37
2019-05-05T17:40:01.094Z,7.03
2019-05-05T17:42:49.634Z,6.70
2019-05-05T17:45:26.713Z,6.83
2019-05-05T17:48:06.993Z,7.53
2019-05-05T17:50:54.601Z,6.53
2019-05-05T17:53:43.630Z,6.50
2019-05-05T17:56:14.072Z,6.93
2019-05-05T17:58:44.471Z,6.83
2019-05-05T18:01:15.476Z,6.57
2019-05-05T18:03:45.193Z,7.40
2019-05-05T18:06:20.789Z,8.17
2019-05-05T18:08:53.798Z,8.73
2019-05-05T18:11:30.993Z,7.60
2019-05-05T18:14:05.267Z,8.30
2019-05-05T18:16:34.688Z,7.33
2019-05-05T18:19:04.551Z,8.63
2019-05-05T18:21:34.816Z,6.97
2019-05-05T18:24:04.845Z,7.03
2019-05-05T18:26:34.382Z,5.93
2019-05-05T18:29:04.034Z,5.37
2019-05-05T18:31:34.013Z,5.90
2019-05-05T18:34:05.285Z,5.60
2019-05-05T18:36:35.050Z,5.70
2019-05-05T18:39:07.540Z,5.77
2019-05-05T18:41:56.433Z,4.83
2019-05-05T18:44:34.979Z,3.80
2019-05-05T18:47:15.747Z,4.83
2019-05-05T18:49:43.747Z,5.17
2019-05-05T18:52:13.989Z,3.90
2019-05-05T18:54:43.851Z,4.97
2019-05-05T18:57:13.874Z,4.40
2019-05-05T18:59:44.728Z,2.90
2019-05-05T19:02:23.923Z,2.40
2019-05-05T19:04:54.922Z,2.33
2019-05-05T19:07:26.237Z,3.70
2019-05-05T19:09:56.997Z,3.77
2019-05-05T19:12:26.782Z,3.40
2019-05-05T19:14:56.316Z,2.70
2019-05-05T19:17:28.547Z,4.20
2019-05-05T19:19:58.893Z,2.43
2019-05-05T19:22:28.541Z,2.67
2019-05-05T19:24:59.849Z,2.40
2019-05-05T19:27:29.427Z,3.50
2019-05-05T19:29:58.985Z,4.57
2019-05-05T19:32:28.453Z,9.10
2019-05-05T19:34:57.945Z,5.77
2019-05-05T19:37:28.558Z,5.23
2019-05-05T19:39:58.056Z,4.27
2019-05-05T19:42:27.616Z,4.10
2019-05-05T19:44:57.227Z,3.30
2019-05-05T19:47:26.646Z,2.93
2019-05-05T19:49:57.897Z,2.20
2019-05-05T19:52:28.838Z,2.43
2019-05-05T19:54:58.682Z,2.53
2019-05-05T19:57:28.363Z,2.33
2019-05-05T19:59:57.925Z,1.17
2019-05-05T20:02:27.538Z,1.43
2019-05-05T20:04:57.041Z,1.10
2019-05-05T20:07:26.478Z,1.40
2019-05-05T20:09:55.979Z,0.93
2019-05-05T20:12:25.585Z,0.80
2019-05-05T20:14:55.361Z,0.90
2019-05-05T20:17:26.555Z,0.70
2019-05-05T20:19:56.155Z,0.80
2019-05-05T20:22:25.710Z,1.00
2019-05-05T20:24:55.216Z,1.00
2019-05-05T20:27:24.701Z,0.90
2019-05-05T20:29:54.189Z,0.70
2019-05-05T20:32:25.353Z,0.70
2019-05-05T20:35:14.900Z,0.70
2019-05-05T20:37:54.123Z,0.80
2019-05-05T20:40:25.416Z,0.90
2019-05-05T20:42:54.915Z,0.80
2019-05-05T20:45:26.095Z,1.00
2019-05-05T20:47:55.578Z,0.93
2019-05-05T20:50:25.139Z,1.00
2019-05-05T20:52:54.730Z,0.90
2019-05-05T20:55:25.899Z,1.20
2019-05-05T20:57:56.720Z,0.87
2019-05-05T21:00:26.298Z,1.00
2019-05-05T21:02:55.883Z,1.23
2019-05-05T21:05:25.443Z,1.00
2019-05-05T21:07:54.911Z,1.10
2019-05-05T21:10:24.425Z,1.30
2019-05-05T21:12:54.505Z,1.43
2019-05-05T21:15:24.697Z,1.00
2019-05-05T21:17:54.462Z,1.07
2019-05-05T21:20:24.198Z,0.80
2019-05-05T21:23:04.585Z,1.03
2019-05-05T21:25:44.385Z,1.00
2019-05-05T21:28:14.630Z,1.17
2019-05-05T21:30:44.260Z,0.80
2019-05-05T21:33:13.778Z,1.30
2019-05-05T21:35:44.074Z,1.10
2019-05-05T21:38:14.232Z,1.10
2019-05-05T21:40:44.141Z,1.20
2019-05-05T21:43:15.367Z,0.90
2019-05-05T21:45:45.135Z,1.10
2019-05-05T21:48:14.630Z,1.50
2019-05-05T21:50:45.863Z,1.00
2019-05-05T21:53:28.443Z,1.23
2019-05-05T21:56:04.196Z,1.53
2019-05-05T21:58:36.040Z,1.00
2019-05-05T22:01:08.062Z,1.20
2019-05-05T22:03:38.990Z,1.27
2019-05-05T22:06:08.653Z,1.20
2019-05-05T22:08:38.358Z,1.33
2019-05-05T22:11:08.467Z,2.47
2019-05-05T22:13:37.956Z,3.40
2019-05-05T22:16:07.441Z,3.57
2019-05-05T22:18:37.081Z,3.40
2019-05-05T22:21:11.080Z,2.90
2019-05-05T22:23:40.536Z,3.60
2019-05-05T22:26:10.019Z,3.93
2019-05-05T22:28:39.441Z,3.33
2019-05-05T22:31:08.997Z,3.47
2019-05-05T22:33:38.449Z,2.90
2019-05-05T22:36:07.946Z,2.27
2019-05-05T22:38:37.578Z,2.17
2019-05-05T22:41:07.068Z,2.50
2019-05-05T22:43:36.625Z,2.40
2019-05-05T22:46:06.183Z,2.37
2019-05-05T22:48:36.949Z,2.40
2019-05-05T22:51:06.476Z,1.40
2019-05-05T22:53:35.961Z,1.27
2019-05-05T22:56:05.521Z,2.43
2019-05-05T22:58:35.015Z,1.93
2019-05-05T23:01:04.567Z,1.83
2019-05-05T23:03:40.355Z,1.37
2019-05-05T23:06:13.671Z,1.40
2019-05-05T23:08:45.275Z,1.90
2019-05-05T23:11:14.877Z,1.77
2019-05-05T23:13:44.475Z,1.50
2019-05-05T23:16:15.695Z,1.67
2019-05-05T23:18:45.293Z,1.40
2019-05-05T23:21:34.469Z,1.40
2019-05-05T23:24:08.508Z,1.30
2019-05-05T23:26:43.768Z,1.17
2019-05-05T23:29:13.760Z,1.63
2019-05-05T23:31:44.509Z,1.30
2019-05-05T23:34:14.685Z,1.50
2019-05-05T23:36:44.517Z,1.03
2019-05-05T23:39:13.985Z,1.30
2019-05-05T23:41:43.499Z,1.27
2019-05-05T23:44:14.388Z,1.00
2019-05-05T23:46:44.254Z,1.00
2019-05-05T23:49:13.912Z,1.40
2019-05-05T23:51:44.106Z,1.73
2019-05-05T23:54:14.033Z,1.30
2019-05-05T23:56:44.102Z,1.03
2019-05-05T23:59:13.721Z,1.07
